sensor_id;sensor_type;location;lat;lon;timestamp;P1;durP1;ratioP1;P2;durP2;ratioP2
23712;SDS011;12035;49.978;8.298;2023-08-01T00:00:30;3.95;;;2.33;;
23712;SDS011;12035;49.978;8.298;2023-08-01T00:05:29;4.65;;;2.28;;
23712;SDS011;12035;49.978;8.298;2023-08-01T00:10:26;4.97;;;2.75;;
23712;SDS011;12035;49.978;8.298;2023-08-01T00:15:23;4.75;;;2.30;;
23712;SDS011;12035;49.978;8.298;2023-08-01T00:20:20;4.53;;;2.03;;
23712;SDS011;12035;49.978;8.298;2023-08-01T00:25:19;5.43;;;2.20;;
23712;SDS011;12035;49.978;8.298;2023-08-01T00:30:16;6.20;;;2.47;;
23712;SDS011;12035;49.978;8.298;2023-08-01T00:35:14;5.38;;;2.80;;
23712;SDS011;12035;49.978;8.298;2023-08-01T00:40:12;8.93;;;2.60;;
23712;SDS011;12035;49.978;8.298;2023-08-01T00:45:13;5.47;;;2.45;;
23712;SDS011;12035;49.978;8.298;2023-08-01T00:50:10;5.97;;;3.10;;
23712;SDS011;12035;49.978;8.298;2023-08-01T00:55:07;8.45;;;3.20;;
23712;SDS011;12035;49.978;8.298;2023-08-01T01:00:05;6.63;;;3.25;;
23712;SDS011;12035;49.978;8.298;2023-08-01T01:05:05;6.35;;;2.85;;
23712;SDS011;12035;49.978;8.298;2023-08-01T01:10:03;7.57;;;2.85;;
23712;SDS011;12035;49.978;8.298;2023-08-01T01:15:01;5.68;;;2.75;;
23712;SDS011;12035;49.978;8.298;2023-08-01T01:20:00;5.03;;;2.80;;
23712;SDS011;12035;49.978;8.298;2023-08-01T01:24:59;5.25;;;2.88;;
23712;SDS011;12035;49.978;8.298;2023-08-01T01:29:58;4.30;;;2.78;;
23712;SDS011;12035;49.978;8.298;2023-08-01T01:34:56;4.05;;;2.40;;
23712;SDS011;12035;49.978;8.298;2023-08-01T01:39:53;4.88;;;2.10;;
23712;SDS011;12035;49.978;8.298;2023-08-01T01:44:52;6.05;;;2.85;;
23712;SDS011;12035;49.978;8.298;2023-08-01T01:49:49;5.82;;;2.60;;
23712;SDS011;12035;49.978;8.298;2023-08-01T01:54:46;4.88;;;2.33;;
23712;SDS011;12035;49.978;8.298;2023-08-01T01:59:44;5.78;;;2.70;;
23712;SDS011;12035;49.978;8.298;2023-08-01T02:04:42;5.10;;;2.50;;
23712;SDS011;12035;49.978;8.298;2023-08-01T02:09:41;5.32;;;2.58;;
23712;SDS011;12035;49.978;8.298;2023-08-01T02:14:41;5.03;;;2.30;;
23712;SDS011;12035;49.978;8.298;2023-08-01T02:19:38;4.75;;;2.47;;
23712;SDS011;12035;49.978;8.298;2023-08-01T02:24:36;5.15;;;2.45;;
23712;SDS011;12035;49.978;8.298;2023-08-01T02:29:34;4.55;;;2.35;;
23712;SDS011;12035;49.978;8.298;2023-08-01T02:34:31;5.13;;;1.80;;
23712;SDS011;12035;49.978;8.298;2023-08-01T02:39:28;4.60;;;2.10;;
23712;SDS011;12035;49.978;8.298;2023-08-01T02:44:27;3.08;;;1.65;;
23712;SDS011;12035;49.978;8.298;2023-08-01T02:49:24;3.25;;;1.90;;
23712;SDS011;12035;49.978;8.298;2023-08-01T02:54:21;2.80;;;1.30;;
23712;SDS011;12035;49.978;8.298;2023-08-01T02:59:18;3.05;;;1.38;;
23712;SDS011;12035;49.978;8.298;2023-08-01T03:04:17;3.88;;;1.63;;
23712;SDS011;12035;49.978;8.298;2023-08-01T03:09:14;2.30;;;1.27;;
23712;SDS011;12035;49.978;8.298;2023-08-01T03:14:11;3.90;;;1.50;;
23712;SDS011;12035;49.978;8.298;2023-08-01T03:19:08;3.60;;;1.17;;
23712;SDS011;12035;49.978;8.298;2023-08-01T03:24:06;3.50;;;1.35;;
23712;SDS011;12035;49.978;8.298;2023-08-01T03:29:04;3.08;;;1.35;;
23712;SDS011;12035;49.978;8.298;2023-08-01T03:34:01;3.15;;;1.40;;
23712;SDS011;12035;49.978;8.298;2023-08-01T03:38:59;2.38;;;1.70;;
23712;SDS011;12035;49.978;8.298;2023-08-01T03:43:58;4.90;;;1.63;;
23712;SDS011;12035;49.978;8.298;2023-08-01T03:48:55;2.70;;;1.50;;
23712;SDS011;12035;49.978;8.298;2023-08-01T03:53:52;4.63;;;1.40;;
23712;SDS011;12035;49.978;8.298;2023-08-01T03:58:49;2.80;;;1.70;;
23712;SDS011;12035;49.978;8.298;2023-08-01T04:03:48;3.97;;;1.60;;
23712;SDS011;12035;49.978;8.298;2023-08-01T04:08:45;4.97;;;1.90;;
23712;SDS011;12035;49.978;8.298;2023-08-01T04:13:42;2.80;;;1.52;;
23712;SDS011;12035;49.978;8.298;2023-08-01T04:18:39;2.97;;;1.67;;
23712;SDS011;12035;49.978;8.298;2023-08-01T04:23:37;3.47;;;1.70;;
23712;SDS011;12035;49.978;8.298;2023-08-01T04:28:34;3.70;;;1.73;;
23712;SDS011;12035;49.978;8.298;2023-08-01T04:33:31;3.63;;;1.52;;
23712;SDS011;12035;49.978;8.298;2023-08-01T04:38:28;4.13;;;1.58;;
23712;SDS011;12035;49.978;8.298;2023-08-01T04:43:27;3.15;;;1.70;;
23712;SDS011;12035;49.978;8.298;2023-08-01T04:48:24;3.22;;;1.48;;
23712;SDS011;12035;49.978;8.298;2023-08-01T04:53:21;4.05;;;1.55;;
23712;SDS011;12035;49.978;8.298;2023-08-01T04:58:18;3.22;;;1.27;;
23712;SDS011;12035;49.978;8.298;2023-08-01T05:03:17;2.92;;;1.33;;
23712;SDS011;12035;49.978;8.298;2023-08-01T05:08:14;3.75;;;1.33;;
23712;SDS011;12035;49.978;8.298;2023-08-01T05:13:11;1.90;;;1.02;;
23712;SDS011;12035;49.978;8.298;2023-08-01T05:18:09;2.10;;;1.02;;
23712;SDS011;12035;49.978;8.298;2023-08-01T05:23:07;2.50;;;1.15;;
23712;SDS011;12035;49.978;8.298;2023-08-01T05:28:05;1.60;;;1.00;;
23712;SDS011;12035;49.978;8.298;2023-08-01T05:33:02;1.80;;;0.98;;
23712;SDS011;12035;49.978;8.298;2023-08-01T05:37:59;2.20;;;0.90;;
23712;SDS011;12035;49.978;8.298;2023-08-01T05:42:58;5.03;;;1.00;;
23712;SDS011;12035;49.978;8.298;2023-08-01T05:47:56;2.22;;;0.80;;
23712;SDS011;12035;49.978;8.298;2023-08-01T05:52:53;1.90;;;0.90;;
23712;SDS011;12035;49.978;8.298;2023-08-01T05:57:50;1.45;;;0.80;;
23712;SDS011;12035;49.978;8.298;2023-08-01T06:02:49;1.98;;;1.13;;
23712;SDS011;12035;49.978;8.298;2023-08-01T06:07:46;3.65;;;1.20;;
23712;SDS011;12035;49.978;8.298;2023-08-01T06:12:43;2.63;;;1.48;;
23712;SDS011;12035;49.978;8.298;2023-08-01T06:17:41;2.40;;;1.30;;
23712;SDS011;12035;49.978;8.298;2023-08-01T06:22:41;1.95;;;1.10;;
23712;SDS011;12035;49.978;8.298;2023-08-01T06:27:38;1.48;;;0.80;;
23712;SDS011;12035;49.978;8.298;2023-08-01T06:32:35;1.33;;;0.65;;
23712;SDS011;12035;49.978;8.298;2023-08-01T06:37:32;1.42;;;0.80;;
23712;SDS011;12035;49.978;8.298;2023-08-01T06:42:31;3.40;;;0.82;;
23712;SDS011;12035;49.978;8.298;2023-08-01T06:47:28;2.88;;;0.90;;
23712;SDS011;12035;49.978;8.298;2023-08-01T06:52:25;2.83;;;0.80;;
23712;SDS011;12035;49.978;8.298;2023-08-01T06:57:22;0.73;;;0.43;;
23712;SDS011;12035;49.978;8.298;2023-08-01T07:02:20;2.65;;;0.63;;
23712;SDS011;12035;49.978;8.298;2023-08-01T07:07:17;1.05;;;0.40;;
23712;SDS011;12035;49.978;8.298;2023-08-01T07:12:14;0.82;;;0.22;;
23712;SDS011;12035;49.978;8.298;2023-08-01T07:17:11;1.23;;;0.35;;
23712;SDS011;12035;49.978;8.298;2023-08-01T07:22:10;1.52;;;0.25;;
23712;SDS011;12035;49.978;8.298;2023-08-01T07:27:07;0.43;;;0.30;;
23712;SDS011;12035;49.978;8.298;2023-08-01T07:32:05;0.65;;;0.45;;
23712;SDS011;12035;49.978;8.298;2023-08-01T07:37:03;1.17;;;0.40;;
23712;SDS011;12035;49.978;8.298;2023-08-01T07:42:02;0.40;;;0.30;;
23712;SDS011;12035;49.978;8.298;2023-08-01T07:46:59;0.47;;;0.40;;
23712;SDS011;12035;49.978;8.298;2023-08-01T07:51:56;0.70;;;0.40;;
23712;SDS011;12035;49.978;8.298;2023-08-01T07:56:53;0.88;;;0.50;;
23712;SDS011;12035;49.978;8.298;2023-08-01T08:01:52;0.85;;;0.57;;
23712;SDS011;12035;49.978;8.298;2023-08-01T08:06:49;0.75;;;0.50;;
23712;SDS011;12035;49.978;8.298;2023-08-01T08:11:47;0.98;;;0.80;;
23712;SDS011;12035;49.978;8.298;2023-08-01T08:16:45;0.57;;;0.40;;
23712;SDS011;12035;49.978;8.298;2023-08-01T08:21:43;1.05;;;0.50;;
23712;SDS011;12035;49.978;8.298;2023-08-01T08:26:40;0.75;;;0.52;;
23712;SDS011;12035;49.978;8.298;2023-08-01T08:31:38;1.05;;;0.50;;
23712;SDS011;12035;49.978;8.298;2023-08-01T08:36:35;0.82;;;0.50;;
23712;SDS011;12035;49.978;8.298;2023-08-01T08:41:35;1.00;;;0.40;;
23712;SDS011;12035;49.978;8.298;2023-08-01T08:46:37;1.17;;;0.60;;
23712;SDS011;12035;49.978;8.298;2023-08-01T08:51:38;1.52;;;0.70;;
23712;SDS011;12035;49.978;8.298;2023-08-01T08:56:38;0.57;;;0.40;;
23712;SDS011;12035;49.978;8.298;2023-08-01T09:01:35;1.10;;;0.70;;
23712;SDS011;12035;49.978;8.298;2023-08-01T09:06:34;3.35;;;0.68;;
23712;SDS011;12035;49.978;8.298;2023-08-01T09:11:47;1.42;;;0.70;;
23712;SDS011;12035;49.978;8.298;2023-08-01T09:16:46;0.90;;;0.60;;
23712;SDS011;12035;49.978;8.298;2023-08-01T09:21:43;1.30;;;0.70;;
23712;SDS011;12035;49.978;8.298;2023-08-01T09:26:41;2.42;;;0.80;;
23712;SDS011;12035;49.978;8.298;2023-08-01T09:31:41;2.33;;;0.75;;
23712;SDS011;12035;49.978;8.298;2023-08-01T09:36:39;0.93;;;0.70;;
23712;SDS011;12035;49.978;8.298;2023-08-01T09:41:36;2.85;;;0.88;;
23712;SDS011;12035;49.978;8.298;2023-08-01T09:46:34;1.50;;;0.77;;
23712;SDS011;12035;49.978;8.298;2023-08-01T09:51:32;1.95;;;1.00;;
23712;SDS011;12035;49.978;8.298;2023-08-01T09:56:29;2.05;;;0.90;;
23712;SDS011;12035;49.978;8.298;2023-08-01T10:01:26;1.95;;;0.90;;
23712;SDS011;12035;49.978;8.298;2023-08-01T10:06:24;1.52;;;0.90;;
23712;SDS011;12035;49.978;8.298;2023-08-01T10:11:26;1.55;;;0.80;;
23712;SDS011;12035;49.978;8.298;2023-08-01T10:16:29;2.03;;;0.90;;
23712;SDS011;12035;49.978;8.298;2023-08-01T10:21:27;3.97;;;1.17;;
23712;SDS011;12035;49.978;8.298;2023-08-01T10:26:27;1.52;;;0.88;;
23712;SDS011;12035;49.978;8.298;2023-08-01T10:31:24;1.42;;;0.90;;
23712;SDS011;12035;49.978;8.298;2023-08-01T10:36:22;2.28;;;1.10;;
23712;SDS011;12035;49.978;8.298;2023-08-01T10:41:27;3.50;;;1.27;;
23712;SDS011;12035;49.978;8.298;2023-08-01T10:46:28;2.42;;;1.30;;
23712;SDS011;12035;49.978;8.298;2023-08-01T10:51:25;1.80;;;0.90;;
23712;SDS011;12035;49.978;8.298;2023-08-01T11:01:30;3.20;;;1.20;;
23712;SDS011;12035;49.978;8.298;2023-08-01T11:06:27;2.88;;;0.98;;
23712;SDS011;12035;49.978;8.298;2023-08-01T11:11:24;1.58;;;0.90;;
23712;SDS011;12035;49.978;8.298;2023-08-01T11:16:22;2.88;;;1.00;;
23712;SDS011;12035;49.978;8.298;2023-08-01T11:21:25;2.28;;;1.05;;
23712;SDS011;12035;49.978;8.298;2023-08-01T11:26:23;2.92;;;1.30;;
23712;SDS011;12035;49.978;8.298;2023-08-01T11:31:20;3.08;;;1.05;;
23712;SDS011;12035;49.978;8.298;2023-08-01T11:36:19;1.33;;;0.90;;
23712;SDS011;12035;49.978;8.298;2023-08-01T11:41:17;2.08;;;1.15;;
23712;SDS011;12035;49.978;8.298;2023-08-01T11:46:15;2.55;;;1.05;;
23712;SDS011;12035;49.978;8.298;2023-08-01T11:51:13;3.53;;;1.02;;
23712;SDS011;12035;49.978;8.298;2023-08-01T11:56:19;1.85;;;0.93;;
23712;SDS011;12035;49.978;8.298;2023-08-01T12:01:17;1.67;;;0.90;;
23712;SDS011;12035;49.978;8.298;2023-08-01T12:06:16;2.88;;;0.90;;
23712;SDS011;12035;49.978;8.298;2023-08-01T12:11:18;2.05;;;1.02;;
23712;SDS011;12035;49.978;8.298;2023-08-01T12:16:17;1.85;;;0.90;;
23712;SDS011;12035;49.978;8.298;2023-08-01T12:21:17;4.50;;;1.10;;
23712;SDS011;12035;49.978;8.298;2023-08-01T12:26:14;2.38;;;0.90;;
23712;SDS011;12035;49.978;8.298;2023-08-01T12:31:11;1.25;;;0.90;;
23712;SDS011;12035;49.978;8.298;2023-08-01T12:36:13;1.98;;;1.00;;
23712;SDS011;12035;49.978;8.298;2023-08-01T12:41:12;2.78;;;1.35;;
23712;SDS011;12035;49.978;8.298;2023-08-01T12:46:10;2.28;;;1.08;;
23712;SDS011;12035;49.978;8.298;2023-08-01T12:51:07;2.70;;;1.00;;
23712;SDS011;12035;49.978;8.298;2023-08-01T12:56:04;4.60;;;1.30;;
23712;SDS011;12035;49.978;8.298;2023-08-01T13:01:03;3.58;;;1.00;;
23712;SDS011;12035;49.978;8.298;2023-08-01T13:06:00;2.30;;;1.10;;
23712;SDS011;12035;49.978;8.298;2023-08-01T13:10:57;4.22;;;1.30;;
23712;SDS011;12035;49.978;8.298;2023-08-01T13:15:55;2.58;;;1.20;;
23712;SDS011;12035;49.978;8.298;2023-08-01T13:20:54;2.33;;;1.20;;
23712;SDS011;12035;49.978;8.298;2023-08-01T13:25:54;4.18;;;0.90;;
23712;SDS011;12035;49.978;8.298;2023-08-01T13:30:53;1.90;;;1.02;;
23712;SDS011;12035;49.978;8.298;2023-08-01T13:35:51;2.38;;;1.00;;
23712;SDS011;12035;49.978;8.298;2023-08-01T13:40:50;4.25;;;1.20;;
23712;SDS011;12035;49.978;8.298;2023-08-01T13:45:47;3.45;;;1.02;;
23712;SDS011;12035;49.978;8.298;2023-08-01T13:50:44;2.70;;;1.10;;
23712;SDS011;12035;49.978;8.298;2023-08-01T13:55:41;2.92;;;1.10;;
23712;SDS011;12035;49.978;8.298;2023-08-01T14:00:39;2.65;;;1.17;;
23712;SDS011;12035;49.978;8.298;2023-08-01T14:05:36;2.08;;;1.00;;
23712;SDS011;12035;49.978;8.298;2023-08-01T14:10:33;3.17;;;1.25;;
23712;SDS011;12035;49.978;8.298;2023-08-01T14:15:30;3.28;;;1.27;;
23712;SDS011;12035;49.978;8.298;2023-08-01T14:20:29;1.65;;;1.05;;
23712;SDS011;12035;49.978;8.298;2023-08-01T14:25:27;3.00;;;1.13;;
23712;SDS011;12035;49.978;8.298;2023-08-01T14:30:24;3.53;;;1.40;;
23712;SDS011;12035;49.978;8.298;2023-08-01T14:35:21;1.88;;;1.10;;
23712;SDS011;12035;49.978;8.298;2023-08-01T14:40:19;4.53;;;1.40;;
23712;SDS011;12035;49.978;8.298;2023-08-01T14:45:17;3.47;;;1.35;;
23712;SDS011;12035;49.978;8.298;2023-08-01T14:50:14;3.03;;;1.30;;
23712;SDS011;12035;49.978;8.298;2023-08-01T14:55:12;3.60;;;1.30;;
23712;SDS011;12035;49.978;8.298;2023-08-01T15:00:10;2.47;;;1.00;;
23712;SDS011;12035;49.978;8.298;2023-08-01T15:05:09;3.05;;;1.30;;
23712;SDS011;12035;49.978;8.298;2023-08-01T15:10:09;2.55;;;1.33;;
23712;SDS011;12035;49.978;8.298;2023-08-01T15:15:07;2.90;;;1.23;;
23712;SDS011;12035;49.978;8.298;2023-08-01T15:20:07;2.85;;;1.05;;
23712;SDS011;12035;49.978;8.298;2023-08-01T15:25:06;2.90;;;1.20;;
23712;SDS011;12035;49.978;8.298;2023-08-01T15:30:04;1.77;;;0.80;;
23712;SDS011;12035;49.978;8.298;2023-08-01T15:35:03;2.65;;;1.10;;
23712;SDS011;12035;49.978;8.298;2023-08-01T15:40:02;2.50;;;1.10;;
23712;SDS011;12035;49.978;8.298;2023-08-01T15:45:00;3.53;;;1.05;;
23712;SDS011;12035;49.978;8.298;2023-08-01T15:49:57;2.08;;;0.98;;
23712;SDS011;12035;49.978;8.298;2023-08-01T15:54:54;2.15;;;1.10;;
23712;SDS011;12035;49.978;8.298;2023-08-01T15:59:53;2.40;;;1.08;;
23712;SDS011;12035;49.978;8.298;2023-08-01T16:04:50;1.83;;;0.82;;
23712;SDS011;12035;49.978;8.298;2023-08-01T16:09:47;5.65;;;1.00;;
23712;SDS011;12035;49.978;8.298;2023-08-01T16:14:44;2.00;;;0.90;;
23712;SDS011;12035;49.978;8.298;2023-08-01T16:19:44;6.07;;;1.00;;
23712;SDS011;12035;49.978;8.298;2023-08-01T16:24:41;3.95;;;1.00;;
23712;SDS011;12035;49.978;8.298;2023-08-01T16:29:38;2.88;;;0.90;;
23712;SDS011;12035;49.978;8.298;2023-08-01T16:34:35;1.92;;;1.00;;
23712;SDS011;12035;49.978;8.298;2023-08-01T16:39:33;2.88;;;0.90;;
23712;SDS011;12035;49.978;8.298;2023-08-01T16:44:30;2.53;;;1.00;;
23712;SDS011;12035;49.978;8.298;2023-08-01T16:49:28;4.13;;;1.00;;
23712;SDS011;12035;49.978;8.298;2023-08-01T16:54:25;3.28;;;0.88;;
23712;SDS011;12035;49.978;8.298;2023-08-01T16:59:23;1.85;;;0.88;;
23712;SDS011;12035;49.978;8.298;2023-08-01T17:04:20;2.67;;;0.80;;
23712;SDS011;12035;49.978;8.298;2023-08-01T17:09:17;1.52;;;0.70;;
23712;SDS011;12035;49.978;8.298;2023-08-01T17:14:15;1.80;;;0.90;;
23712;SDS011;12035;49.978;8.298;2023-08-01T17:19:14;2.15;;;0.98;;
23712;SDS011;12035;49.978;8.298;2023-08-01T17:24:11;5.25;;;1.08;;
23712;SDS011;12035;49.978;8.298;2023-08-01T17:29:09;3.90;;;1.10;;
23712;SDS011;12035;49.978;8.298;2023-08-01T17:34:08;3.83;;;1.10;;
23712;SDS011;12035;49.978;8.298;2023-08-01T17:39:06;2.33;;;1.10;;
23712;SDS011;12035;49.978;8.298;2023-08-01T17:44:04;2.90;;;0.90;;
23712;SDS011;12035;49.978;8.298;2023-08-01T17:49:01;1.65;;;0.68;;
23712;SDS011;12035;49.978;8.298;2023-08-01T17:53:59;2.58;;;1.10;;
23712;SDS011;12035;49.978;8.298;2023-08-01T17:58:57;5.43;;;1.08;;
23712;SDS011;12035;49.978;8.298;2023-08-01T18:03:54;3.75;;;1.00;;
23712;SDS011;12035;49.978;8.298;2023-08-01T18:08:52;3.88;;;1.00;;
23712;SDS011;12035;49.978;8.298;2023-08-01T18:13:49;2.90;;;0.90;;
23712;SDS011;12035;49.978;8.298;2023-08-01T18:18:48;2.67;;;0.80;;
23712;SDS011;12035;49.978;8.298;2023-08-01T18:23:45;2.22;;;0.70;;
23712;SDS011;12035;49.978;8.298;2023-08-01T18:28:43;3.92;;;0.93;;
23712;SDS011;12035;49.978;8.298;2023-08-01T18:33:40;2.85;;;1.02;;
23712;SDS011;12035;49.978;8.298;2023-08-01T18:38:39;1.83;;;0.70;;
23712;SDS011;12035;49.978;8.298;2023-08-01T18:43:40;2.45;;;0.80;;
23712;SDS011;12035;49.978;8.298;2023-08-01T18:48:37;4.13;;;1.13;;
23712;SDS011;12035;49.978;8.298;2023-08-01T18:53:35;3.35;;;1.00;;
23712;SDS011;12035;49.978;8.298;2023-08-01T18:58:33;4.18;;;1.00;;
23712;SDS011;12035;49.978;8.298;2023-08-01T19:03:30;4.78;;;0.93;;
23712;SDS011;12035;49.978;8.298;2023-08-01T19:08:27;4.00;;;1.10;;
23712;SDS011;12035;49.978;8.298;2023-08-01T19:13:24;2.22;;;0.75;;
23712;SDS011;12035;49.978;8.298;2023-08-01T19:18:23;1.90;;;0.80;;
23712;SDS011;12035;49.978;8.298;2023-08-01T19:23:20;2.70;;;1.00;;
23712;SDS011;12035;49.978;8.298;2023-08-01T19:28:18;3.42;;;0.90;;
23712;SDS011;12035;49.978;8.298;2023-08-01T19:33:15;4.65;;;1.10;;
23712;SDS011;12035;49.978;8.298;2023-08-01T19:38:14;3.10;;;1.20;;
23712;SDS011;12035;49.978;8.298;2023-08-01T19:43:11;2.83;;;1.20;;
23712;SDS011;12035;49.978;8.298;2023-08-01T19:48:08;5.88;;;1.60;;
23712;SDS011;12035;49.978;8.298;2023-08-01T19:53:06;3.88;;;1.38;;
23712;SDS011;12035;49.978;8.298;2023-08-01T19:58:04;3.55;;;1.77;;
23712;SDS011;12035;49.978;8.298;2023-08-01T20:03:02;3.70;;;1.38;;
23712;SDS011;12035;49.978;8.298;2023-08-01T20:07:59;2.95;;;1.52;;
23712;SDS011;12035;49.978;8.298;2023-08-01T20:12:56;4.55;;;1.30;;
23712;SDS011;12035;49.978;8.298;2023-08-01T20:17:54;5.85;;;3.10;;
23712;SDS011;12035;49.978;8.298;2023-08-01T20:22:51;6.45;;;3.05;;
23712;SDS011;12035;49.978;8.298;2023-08-01T20:27:48;4.30;;;1.50;;
23712;SDS011;12035;49.978;8.298;2023-08-01T20:32:46;3.33;;;1.50;;
23712;SDS011;12035;49.978;8.298;2023-08-01T20:37:44;3.85;;;1.40;;
23712;SDS011;12035;49.978;8.298;2023-08-01T20:42:41;1.90;;;0.98;;
23712;SDS011;12035;49.978;8.298;2023-08-01T20:47:38;3.90;;;1.67;;
23712;SDS011;12035;49.978;8.298;2023-08-01T20:52:35;4.07;;;1.35;;
23712;SDS011;12035;49.978;8.298;2023-08-01T20:57:34;3.95;;;1.20;;
23712;SDS011;12035;49.978;8.298;2023-08-01T21:02:31;6.63;;;1.33;;
23712;SDS011;12035;49.978;8.298;2023-08-01T21:07:28;5.28;;;1.58;;
23712;SDS011;12035;49.978;8.298;2023-08-01T21:12:26;5.20;;;2.90;;
23712;SDS011;12035;49.978;8.298;2023-08-01T21:17:24;4.20;;;1.70;;
23712;SDS011;12035;49.978;8.298;2023-08-01T21:22:22;3.65;;;1.50;;
23712;SDS011;12035;49.978;8.298;2023-08-01T21:27:19;4.93;;;1.83;;
23712;SDS011;12035;49.978;8.298;2023-08-01T21:32:16;5.75;;;1.70;;
23712;SDS011;12035;49.978;8.298;2023-08-01T21:37:14;3.80;;;1.23;;
23712;SDS011;12035;49.978;8.298;2023-08-01T21:42:11;6.13;;;1.77;;
23712;SDS011;12035;49.978;8.298;2023-08-01T21:47:10;2.83;;;1.48;;
23712;SDS011;12035;49.978;8.298;2023-08-01T21:52:07;6.45;;;1.60;;
23712;SDS011;12035;49.978;8.298;2023-08-01T21:57:06;8.20;;;1.52;;
23712;SDS011;12035;49.978;8.298;2023-08-01T22:02:03;3.55;;;1.50;;
23712;SDS011;12035;49.978;8.298;2023-08-01T22:07:00;3.63;;;1.40;;
23712;SDS011;12035;49.978;8.298;2023-08-01T22:11:57;3.05;;;1.27;;
23712;SDS011;12035;49.978;8.298;2023-08-01T22:16:56;3.25;;;1.20;;
23712;SDS011;12035;49.978;8.298;2023-08-01T22:21:53;3.50;;;1.50;;
23712;SDS011;12035;49.978;8.298;2023-08-01T22:26:50;3.88;;;1.38;;
23712;SDS011;12035;49.978;8.298;2023-08-01T22:31:47;3.60;;;1.40;;
23712;SDS011;12035;49.978;8.298;2023-08-01T22:36:46;3.70;;;1.50;;
23712;SDS011;12035;49.978;8.298;2023-08-01T22:41:43;4.03;;;1.50;;
23712;SDS011;12035;49.978;8.298;2023-08-01T22:46:40;5.35;;;1.70;;
23712;SDS011;12035;49.978;8.298;2023-08-01T22:51:37;5.00;;;1.85;;
23712;SDS011;12035;49.978;8.298;2023-08-01T22:56:36;4.15;;;1.40;;
23712;SDS011;12035;49.978;8.298;2023-08-01T23:01:33;3.28;;;1.45;;
23712;SDS011;12035;49.978;8.298;2023-08-01T23:06:31;3.03;;;1.63;;
23712;SDS011;12035;49.978;8.298;2023-08-01T23:11:28;3.65;;;1.42;;
23712;SDS011;12035;49.978;8.298;2023-08-01T23:16:26;5.53;;;1.70;;
23712;SDS011;12035;49.978;8.298;2023-08-01T23:21:23;5.15;;;1.60;;
23712;SDS011;12035;49.978;8.298;2023-08-01T23:26:21;6.88;;;1.67;;
23712;SDS011;12035;49.978;8.298;2023-08-01T23:31:18;3.30;;;1.30;;
23712;SDS011;12035;49.978;8.298;2023-08-01T23:36:17;4.68;;;1.77;;
23712;SDS011;12035;49.978;8.298;2023-08-01T23:41:14;4.90;;;1.90;;
23712;SDS011;12035;49.978;8.298;2023-08-01T23:46:11;7.13;;;1.77;;
23712;SDS011;12035;49.978;8.298;2023-08-01T23:51:14;6.43;;;1.88;;
23712;SDS011;12035;49.978;8.298;2023-08-01T23:56:14;4.07;;;1.77;;
